SFR78G FAGG-FACT
Flight info
| Callsign | SFR78G |
|---|---|
| Flight time | 0h 37m |
| Altitude | 34000 |
| Route | GRV DCT ETBUL UQ49 ESRUK UQ51 GETEN GETEN1B |
| Aircraft | B738/M-SDE2E3FGHIRWXY/LB1 |
Departure
| Time | 2026-04-15 13:27 |
|---|---|
| Airport | George Airport (FAGG) |
Arrival
| Time | 2026-04-15 14:05 |
|---|---|
| Airport | Cape Town International Airport (FACT) |
| Time | Latitude | Longitude | Altitude | Speed | Heading |
|---|---|---|---|---|---|
| 2026-04-15 13:20 | -34.00238 | 22.38157 | 641 ft | 0 kts | 39° |
| 2026-04-15 13:22 | -34.00248 | 22.38148 | 641 ft | 2 kts | 38° |
| 2026-04-15 13:23 | -34.00259 | 22.38137 | 641 ft | 2 kts | 39° |
| 2026-04-15 13:23 | -34.00271 | 22.38125 | 641 ft | 2 kts | 60° |
| 2026-04-15 13:23 | -34.00273 | 22.38107 | 640 ft | 2 kts | 107° |
| 2026-04-15 13:23 | -34.00270 | 22.38098 | 640 ft | 1 kts | 132° |
| 2026-04-15 13:24 | -34.00265 | 22.38093 | 640 ft | 0 kts | 131° |
| 2026-04-15 13:25 | -34.00279 | 22.38114 | 640 ft | 8 kts | 126° |
| 2026-04-15 13:25 | -34.00320 | 22.38209 | 642 ft | 18 kts | 108° |
| 2026-04-15 13:25 | -34.00325 | 22.38410 | 642 ft | 29 kts | 87° |
| 2026-04-15 13:26 | -34.00317 | 22.38651 | 642 ft | 27 kts | 88° |
| 2026-04-15 13:26 | -34.00322 | 22.38865 | 638 ft | 20 kts | 117° |
| 2026-04-15 13:26 | -34.00424 | 22.38915 | 639 ft | 15 kts | 176° |
| 2026-04-15 13:26 | -34.00514 | 22.38904 | 641 ft | 11 kts | 231° |
| 2026-04-15 13:27 | -34.00531 | 22.38565 | 645 ft | 87 kts | 266° |
| 2026-04-15 13:27 | -34.00565 | 22.37508 | 817 ft | 151 kts | 269° |
| 2026-04-15 13:27 | -34.00610 | 22.36198 | 1659 ft | 169 kts | 268° |
| 2026-04-15 13:27 | -34.00607 | 22.34746 | 2451 ft | 187 kts | 270° |
| 2026-04-15 13:28 | -34.00571 | 22.33086 | 2992 ft | 210 kts | 270° |
| 2026-04-15 13:28 | -34.00550 | 22.31261 | 3627 ft | 231 kts | 270° |
| 2026-04-15 13:28 | -34.00544 | 22.29274 | 4430 ft | 247 kts | 271° |
| 2026-04-15 13:28 | -34.00540 | 22.27176 | 5418 ft | 255 kts | 272° |
| 2026-04-15 13:29 | -34.00532 | 22.25043 | 6407 ft | 262 kts | 273° |
| 2026-04-15 13:29 | -34.00524 | 22.22882 | 7512 ft | 265 kts | 272° |
| 2026-04-15 13:29 | -34.00515 | 22.20682 | 8621 ft | 268 kts | 272° |
| 2026-04-15 13:29 | -34.00507 | 22.18472 | 9806 ft | 269 kts | 272° |
| 2026-04-15 13:30 | -34.00497 | 22.16239 | 10753 ft | 279 kts | 272° |
| 2026-04-15 13:30 | -34.00483 | 22.13800 | 11365 ft | 302 kts | 272° |
| 2026-04-15 13:30 | -34.00469 | 22.11211 | 12139 ft | 319 kts | 272° |
| 2026-04-15 13:30 | -34.00454 | 22.08465 | 12599 ft | 344 kts | 272° |
| 2026-04-15 13:31 | -34.00437 | 22.05496 | 13124 ft | 366 kts | 272° |
| 2026-04-15 13:31 | -34.00420 | 22.02373 | 13859 ft | 379 kts | 272° |
| 2026-04-15 13:31 | -34.00403 | 21.99171 | 14843 ft | 386 kts | 272° |
| 2026-04-15 13:31 | -34.00386 | 21.95963 | 15884 ft | 390 kts | 272° |
| 2026-04-15 13:32 | -34.00368 | 21.92719 | 17065 ft | 392 kts | 272° |
| 2026-04-15 13:32 | -34.00349 | 21.89414 | 18143 ft | 395 kts | 272° |
| 2026-04-15 13:32 | -34.00328 | 21.86142 | 19108 ft | 400 kts | 272° |
| 2026-04-15 13:32 | -34.00304 | 21.82781 | 20148 ft | 402 kts | 272° |
| 2026-04-15 13:33 | -34.00280 | 21.79430 | 21108 ft | 405 kts | 272° |
| 2026-04-15 13:33 | -34.00254 | 21.76068 | 21986 ft | 409 kts | 272° |
| 2026-04-15 13:33 | -34.00226 | 21.72602 | 22832 ft | 414 kts | 272° |
| 2026-04-15 13:33 | -34.00196 | 21.69134 | 23659 ft | 419 kts | 272° |
| 2026-04-15 13:34 | -34.00168 | 21.65668 | 24526 ft | 421 kts | 273° |
| 2026-04-15 13:34 | -34.00139 | 21.62136 | 25291 ft | 426 kts | 273° |
| 2026-04-15 13:34 | -34.00108 | 21.58581 | 26030 ft | 430 kts | 273° |
| 2026-04-15 13:34 | -34.00076 | 21.54972 | 26830 ft | 431 kts | 274° |
| 2026-04-15 13:35 | -34.00044 | 21.51413 | 27862 ft | 427 kts | 274° |
| 2026-04-15 13:35 | -34.00013 | 21.47862 | 28966 ft | 421 kts | 274° |
| 2026-04-15 13:35 | -33.99981 | 21.44388 | 29974 ft | 416 kts | 274° |
| 2026-04-15 13:35 | -33.99949 | 21.40992 | 30972 ft | 410 kts | 275° |
| 2026-04-15 13:36 | -33.99915 | 21.37597 | 31833 ft | 407 kts | 275° |
| 2026-04-15 13:36 | -33.99875 | 21.34197 | 32594 ft | 406 kts | 276° |
| 2026-04-15 13:36 | -33.99832 | 21.30804 | 33473 ft | 402 kts | 276° |
| 2026-04-15 13:36 | -33.99786 | 21.27456 | 33941 ft | 403 kts | 276° |
| 2026-04-15 13:37 | -33.99736 | 21.24053 | 34089 ft | 407 kts | 276° |
| 2026-04-15 13:37 | -33.99685 | 21.20667 | 34091 ft | 402 kts | 276° |
| 2026-04-15 13:37 | -33.99589 | 21.13959 | 34085 ft | 400 kts | 276° |
| 2026-04-15 13:38 | -33.99489 | 21.07256 | 34082 ft | 402 kts | 276° |
| 2026-04-15 13:38 | -33.99385 | 21.00533 | 34070 ft | 402 kts | 276° |
| 2026-04-15 13:39 | -33.99278 | 20.93801 | 34094 ft | 401 kts | 276° |
| 2026-04-15 13:39 | -33.99170 | 20.87107 | 34075 ft | 401 kts | 276° |
| 2026-04-15 13:40 | -33.99057 | 20.80434 | 34081 ft | 400 kts | 276° |
| 2026-04-15 13:40 | -33.98938 | 20.73710 | 34077 ft | 402 kts | 276° |
| 2026-04-15 13:41 | -33.98815 | 20.66996 | 34085 ft | 401 kts | 276° |
| 2026-04-15 13:41 | -33.98694 | 20.60290 | 34076 ft | 401 kts | 275° |
| 2026-04-15 13:42 | -33.98568 | 20.53589 | 34051 ft | 403 kts | 275° |
| 2026-04-15 13:42 | -33.98438 | 20.46880 | 34070 ft | 402 kts | 275° |
| 2026-04-15 13:43 | -33.98304 | 20.40162 | 34065 ft | 402 kts | 275° |
| 2026-04-15 13:43 | -33.98164 | 20.33409 | 33415 ft | 406 kts | 276° |
| 2026-04-15 13:44 | -33.98093 | 20.30014 | 32933 ft | 401 kts | 276° |
| 2026-04-15 13:44 | -33.98025 | 20.26697 | 32462 ft | 402 kts | 275° |
| 2026-04-15 13:44 | -33.97952 | 20.23311 | 31881 ft | 403 kts | 275° |
| 2026-04-15 13:44 | -33.97879 | 20.19966 | 31373 ft | 406 kts | 275° |
| 2026-04-15 13:45 | -33.97800 | 20.16532 | 30777 ft | 414 kts | 275° |
| 2026-04-15 13:45 | -33.97720 | 20.13054 | 30179 ft | 415 kts | 275° |
| 2026-04-15 13:45 | -33.97642 | 20.09615 | 29613 ft | 415 kts | 275° |
| 2026-04-15 13:47 | -33.97096 | 19.84625 | 25370 ft | 438 kts | 271° |
| 2026-04-15 13:47 | -33.97349 | 19.80930 | 24720 ft | 442 kts | 263° |
| 2026-04-15 13:47 | -33.98173 | 19.77387 | 24105 ft | 444 kts | 252° |
| 2026-04-15 13:48 | -33.99438 | 19.74006 | 23491 ft | 443 kts | 246° |
| 2026-04-15 13:48 | -34.00865 | 19.70765 | 22836 ft | 440 kts | 244° |
| 2026-04-15 13:48 | -34.02338 | 19.67582 | 22200 ft | 436 kts | 244° |
| 2026-04-15 13:48 | -34.03818 | 19.64414 | 21566 ft | 431 kts | 244° |
| 2026-04-15 13:49 | -34.05118 | 19.61193 | 20923 ft | 424 kts | 252° |
| 2026-04-15 13:49 | -34.05793 | 19.57844 | 20317 ft | 408 kts | 266° |
| 2026-04-15 13:49 | -34.05769 | 19.54496 | 19781 ft | 400 kts | 276° |
| 2026-04-15 13:49 | -34.05427 | 19.51186 | 19207 ft | 401 kts | 279° |
| 2026-04-15 13:50 | -34.05005 | 19.47893 | 18590 ft | 398 kts | 279° |
| 2026-04-15 13:50 | -34.04588 | 19.44617 | 17985 ft | 394 kts | 279° |
| 2026-04-15 13:50 | -34.04211 | 19.41384 | 17390 ft | 390 kts | 278° |
| 2026-04-15 13:50 | -34.03874 | 19.38143 | 16819 ft | 387 kts | 277° |
| 2026-04-15 13:51 | -34.03573 | 19.34949 | 16234 ft | 385 kts | 277° |
| 2026-04-15 13:51 | -34.03291 | 19.31770 | 15639 ft | 383 kts | 277° |
| 2026-04-15 13:51 | -34.03018 | 19.28592 | 15068 ft | 380 kts | 277° |
| 2026-04-15 13:51 | -34.02750 | 19.25450 | 14517 ft | 377 kts | 277° |
| 2026-04-15 13:52 | -34.02482 | 19.22316 | 14241 ft | 373 kts | 277° |
| 2026-04-15 13:52 | -34.02214 | 19.19217 | 13980 ft | 373 kts | 277° |
| 2026-04-15 13:52 | -34.01954 | 19.16214 | 13420 ft | 346 kts | 277° |
| 2026-04-15 13:52 | -34.01718 | 19.13482 | 13005 ft | 319 kts | 277° |
| 2026-04-15 13:53 | -34.01492 | 19.10885 | 12598 ft | 308 kts | 277° |
| 2026-04-15 13:53 | -34.01266 | 19.08336 | 12159 ft | 301 kts | 277° |
| 2026-04-15 13:53 | -34.01047 | 19.05864 | 11787 ft | 295 kts | 277° |
| 2026-04-15 13:53 | -34.00834 | 19.03462 | 11411 ft | 289 kts | 277° |
| 2026-04-15 13:54 | -34.00621 | 19.01071 | 11021 ft | 284 kts | 277° |
| 2026-04-15 13:54 | -34.00414 | 18.98750 | 10661 ft | 277 kts | 277° |
| 2026-04-15 13:54 | -34.00214 | 18.96488 | 10313 ft | 265 kts | 277° |
| 2026-04-15 13:54 | -34.00018 | 18.94295 | 10011 ft | 261 kts | 277° |
| 2026-04-15 13:55 | -33.99823 | 18.92111 | 9740 ft | 265 kts | 276° |
| 2026-04-15 13:55 | -33.99626 | 18.89919 | 9438 ft | 266 kts | 277° |
| 2026-04-15 13:55 | -33.99428 | 18.87720 | 9054 ft | 265 kts | 277° |
| 2026-04-15 13:55 | -33.99233 | 18.85541 | 8844 ft | 260 kts | 277° |
| 2026-04-15 13:56 | -33.99036 | 18.83366 | 8775 ft | 261 kts | 277° |
| 2026-04-15 13:56 | -33.98841 | 18.81201 | 8703 ft | 263 kts | 277° |
| 2026-04-15 13:56 | -33.98642 | 18.78992 | 8588 ft | 264 kts | 277° |
| 2026-04-15 13:56 | -33.98445 | 18.76788 | 8262 ft | 266 kts | 277° |
| 2026-04-15 13:57 | -33.98148 | 18.74616 | 8020 ft | 259 kts | 289° |
| 2026-04-15 13:57 | -33.97127 | 18.72856 | 7928 ft | 263 kts | 320° |
| 2026-04-15 13:57 | -33.95499 | 18.71867 | 7720 ft | 267 kts | 339° |
| 2026-04-15 13:57 | -33.93692 | 18.71227 | 7467 ft | 268 kts | 341° |
| 2026-04-15 13:58 | -33.91907 | 18.70618 | 7221 ft | 266 kts | 341° |
| 2026-04-15 13:58 | -33.90139 | 18.69993 | 6972 ft | 264 kts | 341° |
| 2026-04-15 13:58 | -33.88394 | 18.69365 | 6695 ft | 260 kts | 341° |
| 2026-04-15 13:58 | -33.86678 | 18.68748 | 6342 ft | 258 kts | 342° |
| 2026-04-15 13:59 | -33.84941 | 18.68126 | 5913 ft | 258 kts | 342° |
| 2026-04-15 13:59 | -33.83208 | 18.67506 | 5454 ft | 260 kts | 342° |
| 2026-04-15 13:59 | -33.81497 | 18.66896 | 5044 ft | 260 kts | 342° |
| 2026-04-15 13:59 | -33.79753 | 18.66274 | 4638 ft | 259 kts | 342° |
| 2026-04-15 14:00 | -33.78071 | 18.65514 | 4157 ft | 261 kts | 328° |
| 2026-04-15 14:00 | -33.76826 | 18.63978 | 3768 ft | 260 kts | 298° |
| 2026-04-15 14:00 | -33.76370 | 18.61888 | 3341 ft | 259 kts | 270° |
| 2026-04-15 14:00 | -33.76695 | 18.59798 | 2981 ft | 256 kts | 247° |
| 2026-04-15 14:01 | -33.79026 | 18.56681 | 2951 ft | 250 kts | 209° |
| 2026-04-15 14:01 | -33.80578 | 18.56069 | 2975 ft | 222 kts | 189° |
| 2026-04-15 14:01 | -33.82039 | 18.55858 | 2983 ft | 197 kts | 185° |
| 2026-04-15 14:02 | -33.83364 | 18.56025 | 2890 ft | 195 kts | 166° |
| 2026-04-15 14:02 | -33.84664 | 18.56479 | 2588 ft | 193 kts | 166° |
| 2026-04-15 14:02 | -33.85955 | 18.56861 | 2313 ft | 189 kts | 167° |
| 2026-04-15 14:02 | -33.87234 | 18.57258 | 2038 ft | 187 kts | 166° |
| 2026-04-15 14:03 | -33.88466 | 18.57651 | 1754 ft | 179 kts | 166° |
| 2026-04-15 14:03 | -33.89611 | 18.58009 | 1534 ft | 159 kts | 167° |
| 2026-04-15 14:03 | -33.90636 | 18.58331 | 1328 ft | 147 kts | 167° |
| 2026-04-15 14:03 | -33.91615 | 18.58638 | 1120 ft | 145 kts | 167° |
| 2026-04-15 14:04 | -33.92582 | 18.58942 | 918 ft | 143 kts | 167° |
| 2026-04-15 14:04 | -33.93544 | 18.59242 | 715 ft | 144 kts | 168° |
| 2026-04-15 14:04 | -33.94521 | 18.59539 | 509 ft | 143 kts | 165° |
| 2026-04-15 14:04 | -33.95471 | 18.59844 | 290 ft | 142 kts | 167° |
| 2026-04-15 14:05 | -33.96430 | 18.60148 | 160 ft | 128 kts | 165° |
| 2026-04-15 14:05 | -33.96928 | 18.60305 | 157 ft | 43 kts | 167° |
| 2026-04-15 14:05 | -33.97121 | 18.60347 | 157 ft | 13 kts | 220° |
| 2026-04-15 14:05 | -33.97110 | 18.60244 | 158 ft | 12 kts | 285° |
| 2026-04-15 14:06 | -33.97086 | 18.60144 | 160 ft | 12 kts | 287° |
| 2026-04-15 14:06 | -33.97057 | 18.60025 | 160 ft | 19 kts | 285° |
| 2026-04-15 14:06 | -33.97072 | 18.59871 | 160 ft | 11 kts | 255° |
| 2026-04-15 14:06 | -33.97074 | 18.59862 | 160 ft | 0 kts | 254° |